Time;durP1;ratioP1;P1;durP2;ratioP2;P2;SDS_P1;SDS_P2;PMS_P1;PMS_P2;Temp;Humidity;BMP_temperature;BMP_pressure;BME280_temperature;BME280_humidity;BME280_pressure;Samples;Min_cycle;Max_cycle;Signal;HPM_P1;HPM_P2
2022/12/16 00:01:58;;;;;;;4.72;1.25;;;27.50;70.00;;;;;;6333187;22;19991;-72
2022/12/16 00:04:25;;;;;;;2.67;1.73;;;27.50;70.00;;;;;;6306480;22;20390;-72
2022/12/16 00:06:51;;;;;;;2.75;0.98;;;27.50;70.00;;;;;;6333613;22;20081;-73
2022/12/16 00:09:17;;;;;;;1.20;1.10;;;27.40;69.90;;;;;;6334674;22;19994;-70
2022/12/16 00:11:44;;;;;;;3.33;2.03;;;27.40;69.90;;;;;;6333451;22;20034;-70
2022/12/16 00:14:10;;;;;;;2.97;0.82;;;27.40;69.70;;;;;;6333911;22;20298;-71
2022/12/16 00:16:37;;;;;;;4.07;1.20;;;27.30;69.70;;;;;;6333799;22;20002;-77
2022/12/16 00:19:03;;;;;;;4.85;1.48;;;27.40;69.80;;;;;;6333178;22;20042;-77
2022/12/16 00:21:30;;;;;;;4.05;1.65;;;27.30;69.70;;;;;;6334137;22;19998;-71
2022/12/16 00:23:57;;;;;;;4.85;1.30;;;27.30;70.00;;;;;;6332779;22;20003;-76
2022/12/16 00:26:23;;;;;;;4.00;1.65;;;27.30;70.20;;;;;;6332941;22;19999;-80
2022/12/16 00:28:50;;;;;;;4.47;1.00;;;27.30;70.40;;;;;;6332100;22;20038;-78
2022/12/16 00:31:16;;;;;;;2.47;1.13;;;27.30;70.60;;;;;;6334803;22;19991;-69
2022/12/16 00:33:43;;;;;;;4.32;2.03;;;27.30;70.60;;;;;;6334038;22;20078;-75
2022/12/16 00:36:10;;;;;;;4.75;1.27;;;27.20;70.60;;;;;;6333691;22;20002;-79
2022/12/16 00:38:36;;;;;;;1.67;1.13;;;27.20;70.60;;;;;;6334400;22;20034;-79
2022/12/16 00:41:03;;;;;;;2.35;1.10;;;27.20;70.70;;;;;;6333122;22;19999;-78
2022/12/16 00:43:29;;;;;;;3.13;2.83;;;27.20;70.70;;;;;;6334147;22;20073;-77
2022/12/16 00:45:56;;;;;;;4.53;1.60;;;27.20;70.80;;;;;;6332905;22;20509;-77
2022/12/16 00:48:23;;;;;;;4.05;1.80;;;27.20;70.80;;;;;;6334552;22;20422;-77
2022/12/16 00:50:54;;;;;;;4.10;1.58;;;27.20;70.80;;;;;;6333308;22;19995;-76
2022/12/16 00:53:22;;;;;;;3.33;1.58;;;27.20;70.80;;;;;;6333329;22;20082;-78
2022/12/16 00:55:48;;;;;;;4.30;1.33;;;27.20;70.80;;;;;;6336049;22;20318;-78
2022/12/16 00:58:18;;;;;;;2.03;1.20;;;27.20;70.80;;;;;;6334344;22;20003;-77
2022/12/16 01:00:44;;;;;;;4.10;1.40;;;27.10;70.80;;;;;;6336068;22;19995;-76
2022/12/16 01:03:11;;;;;;;4.05;1.38;;;27.10;70.80;;;;;;6334671;22;20326;-75
2022/12/16 01:05:38;;;;;;;3.17;1.20;;;27.10;70.90;;;;;;6336123;22;19995;-79
2022/12/16 01:08:04;;;;;;;3.03;1.05;;;27.10;71.00;;;;;;6334697;22;20050;-79
2022/12/16 01:10:31;;;;;;;5.60;1.73;;;27.10;70.90;;;;;;6335518;22;19999;-78
2022/12/16 01:12:57;;;;;;;3.72;1.30;;;27.10;70.80;;;;;;6335446;22;20376;-75
2022/12/16 01:15:24;;;;;;;3.60;1.30;;;27.00;70.70;;;;;;6335008;22;20291;-75
2022/12/16 01:17:50;;;;;;;4.13;1.45;;;27.00;70.70;;;;;;6335759;22;19999;-78
2022/12/16 01:20:17;;;;;;;2.83;1.55;;;27.00;70.60;;;;;;6333840;22;20039;-78
2022/12/16 01:22:43;;;;;;;3.47;1.08;;;27.00;70.60;;;;;;6335674;22;20005;-74
2022/12/16 01:25:13;;;;;;;3.83;1.52;;;27.00;70.70;;;;;;6333256;22;20034;-79
2022/12/16 01:27:40;;;;;;;4.25;2.17;;;27.00;70.90;;;;;;6335212;22;20128;-76
2022/12/16 01:30:08;;;;;;;2.20;1.38;;;26.90;70.90;;;;;;6335944;22;19998;-73
2022/12/16 01:32:35;;;;;;;3.20;1.38;;;26.90;71.00;;;;;;6334682;22;20033;-78
2022/12/16 01:35:01;;;;;;;4.57;1.70;;;26.90;71.10;;;;;;6335591;22;20030;-76
2022/12/16 01:37:28;;;;;;;3.03;1.52;;;26.90;71.30;;;;;;6333320;22;20006;-78
2022/12/16 01:39:55;;;;;;;4.10;1.50;;;26.90;71.30;;;;;;6335716;22;19994;-78
2022/12/16 01:42:23;;;;;;;2.22;1.20;;;26.90;71.30;;;;;;6334094;22;20010;-76
2022/12/16 01:44:50;;;;;;;3.83;1.50;;;26.90;71.40;;;;;;6335153;22;19995;-78
2022/12/16 01:47:25;;;;;;;6.88;1.95;;;26.90;71.40;;;;;;6334739;22;20052;-75
2022/12/16 01:49:55;;;;;;;4.53;1.52;;;26.90;71.50;;;;;;6307380;22;20029;-78
2022/12/16 01:52:28;;;;;;;4.38;2.35;;;26.90;71.50;;;;;;6335478;22;20321;-79
2022/12/16 01:55:08;;;;;;;4.05;1.70;;;26.80;71.50;;;;;;6334088;22;20375;-78
2022/12/16 01:57:41;;;;;;;2.78;1.55;;;26.80;71.60;;;;;;6335067;22;20003;-74
2022/12/16 02:00:09;;;;;;;4.53;1.60;;;26.80;71.60;;;;;;6307471;22;20007;-76
2022/12/16 04:26:06;;;;;;;6.10;5.25;;;26.40;75.50;;;;;;5124479;28;20133;-68
2022/12/16 04:28:32;;;;;;;5.43;4.07;;;26.40;75.10;;;;;;5126450;27;20026;-68
2022/12/16 04:30:59;;;;;;;5.03;3.75;;;26.40;74.70;;;;;;5124776;28;20015;-68
